sensor_id;sensor_type;location;lat;lon;timestamp;temperature;humidity
46283;DHT22;32017;43.700;11.820;2022-08-01T00:01:27;18.60;99.90
46283;DHT22;32017;43.700;11.820;2022-08-01T00:03:30;18.50;99.90
46283;DHT22;32017;43.700;11.820;2022-08-01T00:05:32;18.50;99.90
46283;DHT22;32017;43.700;11.820;2022-08-01T00:07:35;18.60;99.90
46283;DHT22;32017;43.700;11.820;2022-08-01T00:09:38;18.50;99.90
46283;DHT22;32017;43.700;11.820;2022-08-01T00:11:42;18.40;99.90
46283;DHT22;32017;43.700;11.820;2022-08-01T00:13:45;18.40;99.90
46283;DHT22;32017;43.700;11.820;2022-08-01T00:15:50;18.30;99.90
46283;DHT22;32017;43.700;11.820;2022-08-01T00:17:57;18.20;99.90
46283;DHT22;32017;43.700;11.820;2022-08-01T00:20:01;18.00;99.90
46283;DHT22;32017;43.700;11.820;2022-08-01T00:22:05;17.90;99.90
46283;DHT22;32017;43.700;11.820;2022-08-01T00:24:07;17.80;99.90
46283;DHT22;32017;43.700;11.820;2022-08-01T00:26:09;18.10;99.90
46283;DHT22;32017;43.700;11.820;2022-08-01T00:28:11;18.20;99.90
46283;DHT22;32017;43.700;11.820;2022-08-01T00:30:15;18.30;99.90
46283;DHT22;32017;43.700;11.820;2022-08-01T00:32:16;18.30;99.90
46283;DHT22;32017;43.700;11.820;2022-08-01T00:34:18;18.30;99.90
46283;DHT22;32017;43.700;11.820;2022-08-01T00:36:20;18.40;99.90
46283;DHT22;32017;43.700;11.820;2022-08-01T00:38:22;18.30;99.90
46283;DHT22;32017;43.700;11.820;2022-08-01T00:40:24;18.30;99.90
46283;DHT22;32017;43.700;11.820;2022-08-01T00:42:26;18.20;99.90
46283;DHT22;32017;43.700;11.820;2022-08-01T00:44:28;18.10;99.90
46283;DHT22;32017;43.700;11.820;2022-08-01T00:46:31;18.10;99.90
46283;DHT22;32017;43.700;11.820;2022-08-01T00:48:33;18.10;99.90
46283;DHT22;32017;43.700;11.820;2022-08-01T00:50:35;18.10;99.90
46283;DHT22;32017;43.700;11.820;2022-08-01T00:52:37;18.10;99.90
46283;DHT22;32017;43.700;11.820;2022-08-01T00:54:40;18.10;99.90
46283;DHT22;32017;43.700;11.820;2022-08-01T00:56:42;18.00;99.90
46283;DHT22;32017;43.700;11.820;2022-08-01T00:58:44;18.00;99.90
46283;DHT22;32017;43.700;11.820;2022-08-01T01:00:46;18.00;99.90
46283;DHT22;32017;43.700;11.820;2022-08-01T01:02:53;17.90;99.90
46283;DHT22;32017;43.700;11.820;2022-08-01T01:04:55;17.80;99.90
46283;DHT22;32017;43.700;11.820;2022-08-01T01:11:08;17.90;99.90
46283;DHT22;32017;43.700;11.820;2022-08-01T01:13:23;17.90;99.90
46283;DHT22;32017;43.700;11.820;2022-08-01T01:17:35;17.90;99.90
46283;DHT22;32017;43.700;11.820;2022-08-01T01:19:52;17.80;99.90
46283;DHT22;32017;43.700;11.820;2022-08-01T01:24:10;17.70;99.90
46283;DHT22;32017;43.700;11.820;2022-08-01T01:26:24;17.70;99.90
46283;DHT22;32017;43.700;11.820;2022-08-01T01:28:29;17.60;99.90
46283;DHT22;32017;43.700;11.820;2022-08-01T01:30:34;17.50;99.90
46283;DHT22;32017;43.700;11.820;2022-08-01T01:32:39;17.50;99.90
46283;DHT22;32017;43.700;11.820;2022-08-01T01:34:43;17.40;99.90
46283;DHT22;32017;43.700;11.820;2022-08-01T01:36:46;17.40;99.90
46283;DHT22;32017;43.700;11.820;2022-08-01T01:38:49;17.30;99.90
46283;DHT22;32017;43.700;11.820;2022-08-01T01:40:52;17.20;99.90
46283;DHT22;32017;43.700;11.820;2022-08-01T01:42:55;17.20;99.90
46283;DHT22;32017;43.700;11.820;2022-08-01T01:44:58;17.20;99.90
46283;DHT22;32017;43.700;11.820;2022-08-01T01:47:00;17.20;99.90
46283;DHT22;32017;43.700;11.820;2022-08-01T01:49:03;17.30;99.90
46283;DHT22;32017;43.700;11.820;2022-08-01T01:51:06;17.20;99.90
46283;DHT22;32017;43.700;11.820;2022-08-01T01:53:08;17.20;99.90
46283;DHT22;32017;43.700;11.820;2022-08-01T01:55:15;17.20;99.90
46283;DHT22;32017;43.700;11.820;2022-08-01T01:57:18;17.10;99.90
46283;DHT22;32017;43.700;11.820;2022-08-01T01:59:23;17.20;99.90
46283;DHT22;32017;43.700;11.820;2022-08-01T02:01:26;17.20;99.90
46283;DHT22;32017;43.700;11.820;2022-08-01T02:03:59;17.10;99.90
46283;DHT22;32017;43.700;11.820;2022-08-01T02:06:01;17.00;99.90
46283;DHT22;32017;43.700;11.820;2022-08-01T02:08:04;17.00;99.90
46283;DHT22;32017;43.700;11.820;2022-08-01T02:10:06;17.00;99.90
46283;DHT22;32017;43.700;11.820;2022-08-01T02:12:10;17.00;99.90
46283;DHT22;32017;43.700;11.820;2022-08-01T02:14:13;16.80;99.90
46283;DHT22;32017;43.700;11.820;2022-08-01T02:16:15;16.60;99.90
46283;DHT22;32017;43.700;11.820;2022-08-01T02:18:18;16.40;99.90
46283;DHT22;32017;43.700;11.820;2022-08-01T02:20:20;16.40;99.90
46283;DHT22;32017;43.700;11.820;2022-08-01T02:22:27;16.30;99.90
46283;DHT22;32017;43.700;11.820;2022-08-01T02:24:45;16.30;99.90
46283;DHT22;32017;43.700;11.820;2022-08-01T02:26:50;16.30;99.90
46283;DHT22;32017;43.700;11.820;2022-08-01T02:28:54;16.40;99.90
46283;DHT22;32017;43.700;11.820;2022-08-01T02:31:02;16.50;99.90
46283;DHT22;32017;43.700;11.820;2022-08-01T02:33:06;16.40;99.90
46283;DHT22;32017;43.700;11.820;2022-08-01T02:35:24;16.50;99.90
46283;DHT22;32017;43.700;11.820;2022-08-01T02:37:29;16.40;99.90
46283;DHT22;32017;43.700;11.820;2022-08-01T02:39:31;16.50;99.90
46283;DHT22;32017;43.700;11.820;2022-08-01T02:41:36;16.40;99.90
46283;DHT22;32017;43.700;11.820;2022-08-01T02:43:42;16.30;99.90
46283;DHT22;32017;43.700;11.820;2022-08-01T02:45:47;16.20;99.90
46283;DHT22;32017;43.700;11.820;2022-08-01T02:47:51;16.20;99.90
46283;DHT22;32017;43.700;11.820;2022-08-01T02:49:55;16.10;99.90
46283;DHT22;32017;43.700;11.820;2022-08-01T02:51:57;16.10;99.90
46283;DHT22;32017;43.700;11.820;2022-08-01T02:54:01;16.10;99.90
46283;DHT22;32017;43.700;11.820;2022-08-01T02:56:05;16.00;99.90
46283;DHT22;32017;43.700;11.820;2022-08-01T02:58:07;16.00;99.90
46283;DHT22;32017;43.700;11.820;2022-08-01T03:00:11;16.00;99.90
46283;DHT22;32017;43.700;11.820;2022-08-01T03:02:13;16.00;99.90
46283;DHT22;32017;43.700;11.820;2022-08-01T03:04:15;15.80;99.90
46283;DHT22;32017;43.700;11.820;2022-08-01T03:06:19;15.80;99.90
46283;DHT22;32017;43.700;11.820;2022-08-01T03:08:21;15.70;99.90
46283;DHT22;32017;43.700;11.820;2022-08-01T03:10:26;15.70;99.90
46283;DHT22;32017;43.700;11.820;2022-08-01T03:12:29;15.70;99.90
46283;DHT22;32017;43.700;11.820;2022-08-01T03:14:31;15.70;99.90
46283;DHT22;32017;43.700;11.820;2022-08-01T03:16:35;15.70;99.90
46283;DHT22;32017;43.700;11.820;2022-08-01T03:18:39;15.70;99.90
46283;DHT22;32017;43.700;11.820;2022-08-01T03:20:42;15.80;99.90
46283;DHT22;32017;43.700;11.820;2022-08-01T03:22:45;15.90;99.90
46283;DHT22;32017;43.700;11.820;2022-08-01T03:24:49;16.00;99.90
46283;DHT22;32017;43.700;11.820;2022-08-01T03:26:52;16.10;99.90
46283;DHT22;32017;43.700;11.820;2022-08-01T03:28:55;16.00;99.90
46283;DHT22;32017;43.700;11.820;2022-08-01T03:30:58;15.90;99.90
46283;DHT22;32017;43.700;11.820;2022-08-01T03:33:01;15.80;99.90
46283;DHT22;32017;43.700;11.820;2022-08-01T03:35:03;15.80;99.90
46283;DHT22;32017;43.700;11.820;2022-08-01T03:37:12;15.90;99.90
46283;DHT22;32017;43.700;11.820;2022-08-01T03:39:14;15.80;99.90
46283;DHT22;32017;43.700;11.820;2022-08-01T03:41:20;15.80;99.90
46283;DHT22;32017;43.700;11.820;2022-08-01T03:43:30;15.80;99.90
46283;DHT22;32017;43.700;11.820;2022-08-01T03:45:38;15.80;99.90
46283;DHT22;32017;43.700;11.820;2022-08-01T03:47:42;15.80;99.90
46283;DHT22;32017;43.700;11.820;2022-08-01T03:49:45;15.70;99.90
46283;DHT22;32017;43.700;11.820;2022-08-01T03:51:49;15.70;99.90
46283;DHT22;32017;43.700;11.820;2022-08-01T03:53:51;15.70;99.90
46283;DHT22;32017;43.700;11.820;2022-08-01T03:55:56;15.70;99.90
46283;DHT22;32017;43.700;11.820;2022-08-01T03:58:00;15.70;99.90
46283;DHT22;32017;43.700;11.820;2022-08-01T04:00:03;15.50;99.90
46283;DHT22;32017;43.700;11.820;2022-08-01T04:02:09;15.50;99.90
46283;DHT22;32017;43.700;11.820;2022-08-01T04:04:11;15.40;99.90
46283;DHT22;32017;43.700;11.820;2022-08-01T04:06:13;15.20;99.90
46283;DHT22;32017;43.700;11.820;2022-08-01T04:08:15;15.40;99.90
46283;DHT22;32017;43.700;11.820;2022-08-01T04:10:17;15.60;99.90
46283;DHT22;32017;43.700;11.820;2022-08-01T04:12:19;15.60;99.90
46283;DHT22;32017;43.700;11.820;2022-08-01T04:14:22;15.80;99.90
46283;DHT22;32017;43.700;11.820;2022-08-01T04:16:24;15.80;99.90
46283;DHT22;32017;43.700;11.820;2022-08-01T04:18:26;15.80;99.90
46283;DHT22;32017;43.700;11.820;2022-08-01T04:20:28;15.70;99.90
46283;DHT22;32017;43.700;11.820;2022-08-01T04:22:31;15.50;99.90
46283;DHT22;32017;43.700;11.820;2022-08-01T04:24:32;15.60;99.90
46283;DHT22;32017;43.700;11.820;2022-08-01T04:26:36;15.50;99.90
46283;DHT22;32017;43.700;11.820;2022-08-01T04:28:38;15.50;99.90
46283;DHT22;32017;43.700;11.820;2022-08-01T04:30:41;15.50;99.90
46283;DHT22;32017;43.700;11.820;2022-08-01T04:32:44;15.40;99.90
46283;DHT22;32017;43.700;11.820;2022-08-01T04:34:46;15.40;99.90
46283;DHT22;32017;43.700;11.820;2022-08-01T04:36:49;15.50;99.90
46283;DHT22;32017;43.700;11.820;2022-08-01T04:38:55;15.60;99.90
46283;DHT22;32017;43.700;11.820;2022-08-01T04:40:57;15.60;99.90
46283;DHT22;32017;43.700;11.820;2022-08-01T04:42:59;15.60;99.90
46283;DHT22;32017;43.700;11.820;2022-08-01T04:45:02;15.60;99.90
46283;DHT22;32017;43.700;11.820;2022-08-01T04:47:04;15.60;99.90
46283;DHT22;32017;43.700;11.820;2022-08-01T04:49:10;15.50;99.90
46283;DHT22;32017;43.700;11.820;2022-08-01T04:51:14;15.50;99.90
46283;DHT22;32017;43.700;11.820;2022-08-01T04:53:19;15.50;99.90
46283;DHT22;32017;43.700;11.820;2022-08-01T04:55:23;15.40;99.90
46283;DHT22;32017;43.700;11.820;2022-08-01T04:57:25;15.40;99.90
46283;DHT22;32017;43.700;11.820;2022-08-01T04:59:27;15.40;99.90
46283;DHT22;32017;43.700;11.820;2022-08-01T05:01:41;15.50;99.90
46283;DHT22;32017;43.700;11.820;2022-08-01T05:03:43;15.50;99.90
46283;DHT22;32017;43.700;11.820;2022-08-01T05:05:45;15.40;99.90
46283;DHT22;32017;43.700;11.820;2022-08-01T05:07:47;15.50;99.90
46283;DHT22;32017;43.700;11.820;2022-08-01T05:09:49;15.50;99.90
46283;DHT22;32017;43.700;11.820;2022-08-01T05:11:53;15.50;99.90
46283;DHT22;32017;43.700;11.820;2022-08-01T05:13:55;15.70;99.90
46283;DHT22;32017;43.700;11.820;2022-08-01T05:15:56;15.70;99.90
46283;DHT22;32017;43.700;11.820;2022-08-01T05:17:58;15.80;99.90
46283;DHT22;32017;43.700;11.820;2022-08-01T05:20:00;15.90;99.90
46283;DHT22;32017;43.700;11.820;2022-08-01T05:22:04;16.00;99.90
46283;DHT22;32017;43.700;11.820;2022-08-01T05:24:06;15.90;99.90
46283;DHT22;32017;43.700;11.820;2022-08-01T05:26:09;16.00;99.90
46283;DHT22;32017;43.700;11.820;2022-08-01T05:28:11;16.00;99.90
46283;DHT22;32017;43.700;11.820;2022-08-01T05:30:13;16.00;99.90
46283;DHT22;32017;43.700;11.820;2022-08-01T05:32:15;16.10;99.90
46283;DHT22;32017;43.700;11.820;2022-08-01T05:34:17;16.20;99.90
46283;DHT22;32017;43.700;11.820;2022-08-01T05:36:19;16.20;99.90
46283;DHT22;32017;43.700;11.820;2022-08-01T05:38:21;16.20;99.90
46283;DHT22;32017;43.700;11.820;2022-08-01T05:40:23;16.30;99.90
46283;DHT22;32017;43.700;11.820;2022-08-01T05:42:25;16.40;99.90
46283;DHT22;32017;43.700;11.820;2022-08-01T05:44:27;16.40;99.90
46283;DHT22;32017;43.700;11.820;2022-08-01T05:46:29;16.50;99.90
46283;DHT22;32017;43.700;11.820;2022-08-01T05:48:32;16.50;99.90
46283;DHT22;32017;43.700;11.820;2022-08-01T05:50:34;16.50;99.90
46283;DHT22;32017;43.700;11.820;2022-08-01T05:52:36;16.60;99.90
46283;DHT22;32017;43.700;11.820;2022-08-01T05:54:38;16.70;99.90
46283;DHT22;32017;43.700;11.820;2022-08-01T05:56:40;16.80;99.90
46283;DHT22;32017;43.700;11.820;2022-08-01T05:58:42;16.90;99.90
46283;DHT22;32017;43.700;11.820;2022-08-01T06:00:44;17.10;99.90
46283;DHT22;32017;43.700;11.820;2022-08-01T06:02:46;17.10;99.90
46283;DHT22;32017;43.700;11.820;2022-08-01T06:04:48;17.30;99.90
46283;DHT22;32017;43.700;11.820;2022-08-01T06:06:50;17.40;99.90
46283;DHT22;32017;43.700;11.820;2022-08-01T06:08:52;17.50;99.90
46283;DHT22;32017;43.700;11.820;2022-08-01T06:10:54;17.60;99.90
46283;DHT22;32017;43.700;11.820;2022-08-01T06:12:56;17.80;99.90
46283;DHT22;32017;43.700;11.820;2022-08-01T06:14:58;18.10;99.90
46283;DHT22;32017;43.700;11.820;2022-08-01T06:17:00;18.40;99.90
46283;DHT22;32017;43.700;11.820;2022-08-01T06:19:02;18.60;99.90
46283;DHT22;32017;43.700;11.820;2022-08-01T06:21:04;18.80;99.90
46283;DHT22;32017;43.700;11.820;2022-08-01T06:23:12;18.90;99.90
46283;DHT22;32017;43.700;11.820;2022-08-01T06:25:33;19.10;99.90
46283;DHT22;32017;43.700;11.820;2022-08-01T06:27:35;19.30;99.90
46283;DHT22;32017;43.700;11.820;2022-08-01T06:29:39;19.40;99.90
46283;DHT22;32017;43.700;11.820;2022-08-01T06:31:42;19.50;99.90
46283;DHT22;32017;43.700;11.820;2022-08-01T06:33:44;19.80;99.90
46283;DHT22;32017;43.700;11.820;2022-08-01T06:35:46;19.90;99.90
46283;DHT22;32017;43.700;11.820;2022-08-01T06:37:48;20.20;99.90
46283;DHT22;32017;43.700;11.820;2022-08-01T06:39:50;20.60;99.90
46283;DHT22;32017;43.700;11.820;2022-08-01T06:41:52;20.90;99.90
46283;DHT22;32017;43.700;11.820;2022-08-01T06:43:54;21.00;99.90
46283;DHT22;32017;43.700;11.820;2022-08-01T06:45:56;21.20;99.90
46283;DHT22;32017;43.700;11.820;2022-08-01T06:47:58;21.60;99.90
46283;DHT22;32017;43.700;11.820;2022-08-01T06:50:00;21.80;99.90
46283;DHT22;32017;43.700;11.820;2022-08-01T06:52:03;21.70;99.90
46283;DHT22;32017;43.700;11.820;2022-08-01T06:54:06;21.60;99.90
46283;DHT22;32017;43.700;11.820;2022-08-01T06:56:08;21.60;99.90
46283;DHT22;32017;43.700;11.820;2022-08-01T06:58:10;21.70;99.90
46283;DHT22;32017;43.700;11.820;2022-08-01T07:00:13;21.70;99.90
46283;DHT22;32017;43.700;11.820;2022-08-01T07:02:15;21.80;99.90
46283;DHT22;32017;43.700;11.820;2022-08-01T07:04:20;22.10;99.90
46283;DHT22;32017;43.700;11.820;2022-08-01T07:06:24;22.20;99.90
46283;DHT22;32017;43.700;11.820;2022-08-01T07:08:26;22.40;99.90
46283;DHT22;32017;43.700;11.820;2022-08-01T07:10:29;22.60;99.90
46283;DHT22;32017;43.700;11.820;2022-08-01T07:12:31;22.80;99.90
46283;DHT22;32017;43.700;11.820;2022-08-01T07:14:35;23.00;99.90
46283;DHT22;32017;43.700;11.820;2022-08-01T07:16:37;23.10;99.50
46283;DHT22;32017;43.700;11.820;2022-08-01T07:18:40;23.40;98.10
46283;DHT22;32017;43.700;11.820;2022-08-01T07:20:43;23.50;97.60
46283;DHT22;32017;43.700;11.820;2022-08-01T07:22:52;23.70;96.90
46283;DHT22;32017;43.700;11.820;2022-08-01T07:24:55;23.80;96.30
46283;DHT22;32017;43.700;11.820;2022-08-01T07:26:57;24.00;94.70
46283;DHT22;32017;43.700;11.820;2022-08-01T07:29:00;24.10;94.60
46283;DHT22;32017;43.700;11.820;2022-08-01T07:31:02;24.50;94.40
46283;DHT22;32017;43.700;11.820;2022-08-01T07:33:04;24.60;94.80
46283;DHT22;32017;43.700;11.820;2022-08-01T07:35:06;25.00;95.30
46283;DHT22;32017;43.700;11.820;2022-08-01T07:37:08;25.20;95.40
46283;DHT22;32017;43.700;11.820;2022-08-01T07:39:10;25.20;94.80
46283;DHT22;32017;43.700;11.820;2022-08-01T07:41:12;25.50;94.10
46283;DHT22;32017;43.700;11.820;2022-08-01T07:43:14;25.60;93.60
46283;DHT22;32017;43.700;11.820;2022-08-01T07:45:18;25.60;92.90
46283;DHT22;32017;43.700;11.820;2022-08-01T07:47:26;25.70;92.80
46283;DHT22;32017;43.700;11.820;2022-08-01T07:49:29;25.80;92.00
46283;DHT22;32017;43.700;11.820;2022-08-01T07:51:35;25.90;93.10
46283;DHT22;32017;43.700;11.820;2022-08-01T07:53:37;26.10;91.80
46283;DHT22;32017;43.700;11.820;2022-08-01T07:55:39;26.30;92.10
46283;DHT22;32017;43.700;11.820;2022-08-01T07:57:42;26.60;92.80
46283;DHT22;32017;43.700;11.820;2022-08-01T07:59:44;26.70;91.60
46283;DHT22;32017;43.700;11.820;2022-08-01T08:01:46;27.10;90.90
46283;DHT22;32017;43.700;11.820;2022-08-01T08:03:47;27.50;90.20
46283;DHT22;32017;43.700;11.820;2022-08-01T08:05:50;27.20;90.60
46283;DHT22;32017;43.700;11.820;2022-08-01T08:07:59;27.40;91.50
46283;DHT22;32017;43.700;11.820;2022-08-01T08:10:01;27.50;88.90
46283;DHT22;32017;43.700;11.820;2022-08-01T08:12:04;27.80;91.20
46283;DHT22;32017;43.700;11.820;2022-08-01T08:14:06;27.90;91.10
46283;DHT22;32017;43.700;11.820;2022-08-01T08:16:08;28.20;90.40
46283;DHT22;32017;43.700;11.820;2022-08-01T08:18:10;28.70;90.90
46283;DHT22;32017;43.700;11.820;2022-08-01T08:20:13;29.10;89.20
46283;DHT22;32017;43.700;11.820;2022-08-01T08:22:16;29.20;89.30
46283;DHT22;32017;43.700;11.820;2022-08-01T08:24:18;29.30;86.20
46283;DHT22;32017;43.700;11.820;2022-08-01T08:26:27;29.30;85.00
46283;DHT22;32017;43.700;11.820;2022-08-01T08:28:29;29.20;85.30
46283;DHT22;32017;43.700;11.820;2022-08-01T08:30:31;29.10;86.60
46283;DHT22;32017;43.700;11.820;2022-08-01T08:32:34;29.20;86.30
46283;DHT22;32017;43.700;11.820;2022-08-01T08:34:36;29.40;87.90
46283;DHT22;32017;43.700;11.820;2022-08-01T08:36:38;29.80;87.60
46283;DHT22;32017;43.700;11.820;2022-08-01T08:38:40;30.10;81.70
46283;DHT22;32017;43.700;11.820;2022-08-01T08:40:42;30.30;86.10
46283;DHT22;32017;43.700;11.820;2022-08-01T08:42:44;30.60;83.90
46283;DHT22;32017;43.700;11.820;2022-08-01T08:44:48;30.50;83.20
46283;DHT22;32017;43.700;11.820;2022-08-01T08:46:51;30.70;79.50
46283;DHT22;32017;43.700;11.820;2022-08-01T08:48:53;30.10;76.90
46283;DHT22;32017;43.700;11.820;2022-08-01T08:50:55;30.30;76.50
46283;DHT22;32017;43.700;11.820;2022-08-01T08:52:59;30.70;79.80
46283;DHT22;32017;43.700;11.820;2022-08-01T08:55:02;31.00;80.80
46283;DHT22;32017;43.700;11.820;2022-08-01T08:57:04;30.90;76.40
46283;DHT22;32017;43.700;11.820;2022-08-01T08:59:06;31.00;77.20
46283;DHT22;32017;43.700;11.820;2022-08-01T09:01:08;30.90;77.50
46283;DHT22;32017;43.700;11.820;2022-08-01T09:03:11;31.10;81.10
46283;DHT22;32017;43.700;11.820;2022-08-01T09:05:14;31.10;77.70
46283;DHT22;32017;43.700;11.820;2022-08-01T09:09:42;31.40;77.20
46283;DHT22;32017;43.700;11.820;2022-08-01T09:11:44;31.60;73.90
46283;DHT22;32017;43.700;11.820;2022-08-01T09:16:03;31.80;74.30
46283;DHT22;32017;43.700;11.820;2022-08-01T09:18:07;32.00;72.40
46283;DHT22;32017;43.700;11.820;2022-08-01T09:20:09;32.20;72.80
46283;DHT22;32017;43.700;11.820;2022-08-01T09:22:24;32.20;74.10
46283;DHT22;32017;43.700;11.820;2022-08-01T09:24:26;32.40;70.20
46283;DHT22;32017;43.700;11.820;2022-08-01T09:26:32;32.30;69.70
46283;DHT22;32017;43.700;11.820;2022-08-01T09:28:34;32.00;70.80
46283;DHT22;32017;43.700;11.820;2022-08-01T09:30:37;31.90;72.90
46283;DHT22;32017;43.700;11.820;2022-08-01T09:32:57;31.90;69.40
46283;DHT22;32017;43.700;11.820;2022-08-01T09:37:30;32.10;72.70
46283;DHT22;32017;43.700;11.820;2022-08-01T09:39:37;32.30;71.10
46283;DHT22;32017;43.700;11.820;2022-08-01T09:41:42;32.30;68.20
46283;DHT22;32017;43.700;11.820;2022-08-01T09:43:47;32.50;67.60
46283;DHT22;32017;43.700;11.820;2022-08-01T09:45:51;32.80;68.50
46283;DHT22;32017;43.700;11.820;2022-08-01T09:47:53;32.80;70.50
46283;DHT22;32017;43.700;11.820;2022-08-01T09:49:56;32.80;68.60
46283;DHT22;32017;43.700;11.820;2022-08-01T09:52:09;32.90;68.70
46283;DHT22;32017;43.700;11.820;2022-08-01T09:54:11;32.90;65.90
46283;DHT22;32017;43.700;11.820;2022-08-01T09:56:13;33.40;71.60
46283;DHT22;32017;43.700;11.820;2022-08-01T09:58:15;33.50;69.80
46283;DHT22;32017;43.700;11.820;2022-08-01T10:00:17;33.10;66.70
46283;DHT22;32017;43.700;11.820;2022-08-01T10:02:42;33.00;68.10
46283;DHT22;32017;43.700;11.820;2022-08-01T10:04:48;33.10;66.00
46283;DHT22;32017;43.700;11.820;2022-08-01T10:06:51;32.70;67.30
46283;DHT22;32017;43.700;11.820;2022-08-01T10:08:56;33.20;65.60
46283;DHT22;32017;43.700;11.820;2022-08-01T10:11:05;33.40;64.90
46283;DHT22;32017;43.700;11.820;2022-08-01T10:13:08;33.50;66.20
46283;DHT22;32017;43.700;11.820;2022-08-01T10:15:10;33.70;67.40
46283;DHT22;32017;43.700;11.820;2022-08-01T10:17:16;34.30;68.90
46283;DHT22;32017;43.700;11.820;2022-08-01T10:19:20;34.20;63.10
46283;DHT22;32017;43.700;11.820;2022-08-01T10:21:23;34.00;64.60
46283;DHT22;32017;43.700;11.820;2022-08-01T10:23:47;34.00;65.10
46283;DHT22;32017;43.700;11.820;2022-08-01T10:25:49;33.70;63.50
46283;DHT22;32017;43.700;11.820;2022-08-01T10:27:56;33.70;67.20
46283;DHT22;32017;43.700;11.820;2022-08-01T10:29:59;34.10;67.20
46283;DHT22;32017;43.700;11.820;2022-08-01T10:32:22;34.30;63.00
46283;DHT22;32017;43.700;11.820;2022-08-01T10:34:24;33.60;61.90
46283;DHT22;32017;43.700;11.820;2022-08-01T10:36:26;33.50;62.60
46283;DHT22;32017;43.700;11.820;2022-08-01T10:38:29;33.50;62.10
46283;DHT22;32017;43.700;11.820;2022-08-01T10:40:31;34.20;65.40
46283;DHT22;32017;43.700;11.820;2022-08-01T10:42:33;34.40;62.80
46283;DHT22;32017;43.700;11.820;2022-08-01T10:44:36;34.90;62.50
46283;DHT22;32017;43.700;11.820;2022-08-01T10:46:39;34.70;62.20
46283;DHT22;32017;43.700;11.820;2022-08-01T10:48:50;34.40;61.90
46283;DHT22;32017;43.700;11.820;2022-08-01T10:50:55;34.80;65.20
46283;DHT22;32017;43.700;11.820;2022-08-01T10:55:24;35.20;61.40
46283;DHT22;32017;43.700;11.820;2022-08-01T10:57:40;34.90;61.30
46283;DHT22;32017;43.700;11.820;2022-08-01T10:59:50;34.90;62.20
46283;DHT22;32017;43.700;11.820;2022-08-01T11:02:04;34.90;62.50
46283;DHT22;32017;43.700;11.820;2022-08-01T11:04:10;35.40;60.10
46283;DHT22;32017;43.700;11.820;2022-08-01T11:06:17;35.50;61.10
46283;DHT22;32017;43.700;11.820;2022-08-01T11:08:21;35.30;61.30
46283;DHT22;32017;43.700;11.820;2022-08-01T11:12:38;35.70;62.80
46283;DHT22;32017;43.700;11.820;2022-08-01T11:17:50;35.20;59.40
46283;DHT22;32017;43.700;11.820;2022-08-01T11:19:26;35.20;59.70
46283;DHT22;32017;43.700;11.820;2022-08-01T11:24:01;36.20;59.10
46283;DHT22;32017;43.700;11.820;2022-08-01T11:30:28;36.60;58.20
46283;DHT22;32017;43.700;11.820;2022-08-01T11:32:31;36.20;57.60
46283;DHT22;32017;43.700;11.820;2022-08-01T11:34:53;36.20;60.30
46283;DHT22;32017;43.700;11.820;2022-08-01T11:39:17;36.30;63.20
46283;DHT22;32017;43.700;11.820;2022-08-01T11:41:30;36.50;57.20
46283;DHT22;32017;43.700;11.820;2022-08-01T11:45:56;36.00;60.00
46283;DHT22;32017;43.700;11.820;2022-08-01T11:47:58;36.50;61.40
46283;DHT22;32017;43.700;11.820;2022-08-01T11:50:00;36.90;59.90
46283;DHT22;32017;43.700;11.820;2022-08-01T11:54:11;36.10;61.40
46283;DHT22;32017;43.700;11.820;2022-08-01T11:56:12;36.80;59.20
46283;DHT22;32017;43.700;11.820;2022-08-01T11:58:15;36.40;56.60
46283;DHT22;32017;43.700;11.820;2022-08-01T12:00:22;36.70;59.20
46283;DHT22;32017;43.700;11.820;2022-08-01T12:02:32;37.10;60.70
46283;DHT22;32017;43.700;11.820;2022-08-01T12:06:55;36.80;55.70
46283;DHT22;32017;43.700;11.820;2022-08-01T12:09:14;36.80;58.00
46283;DHT22;32017;43.700;11.820;2022-08-01T12:11:16;36.00;57.80
46283;DHT22;32017;43.700;11.820;2022-08-01T12:13:18;36.20;56.20
46283;DHT22;32017;43.700;11.820;2022-08-01T12:15:22;36.00;56.70
46283;DHT22;32017;43.700;11.820;2022-08-01T12:19:31;36.90;57.90
46283;DHT22;32017;43.700;11.820;2022-08-01T12:21:33;36.30;56.20
46283;DHT22;32017;43.700;11.820;2022-08-01T12:23:35;35.80;56.40
46283;DHT22;32017;43.700;11.820;2022-08-01T12:25:38;36.30;57.40
46283;DHT22;32017;43.700;11.820;2022-08-01T12:27:45;36.90;58.20
46283;DHT22;32017;43.700;11.820;2022-08-01T12:29:55;37.00;56.40
46283;DHT22;32017;43.700;11.820;2022-08-01T12:31:57;37.40;61.00
46283;DHT22;32017;43.700;11.820;2022-08-01T12:34:24;37.50;55.60
46283;DHT22;32017;43.700;11.820;2022-08-01T12:36:28;37.50;56.10
46283;DHT22;32017;43.700;11.820;2022-08-01T12:38:30;37.50;59.70
46283;DHT22;32017;43.700;11.820;2022-08-01T12:40:35;37.30;56.20
46283;DHT22;32017;43.700;11.820;2022-08-01T12:42:39;37.40;58.80
46283;DHT22;32017;43.700;11.820;2022-08-01T12:44:42;37.60;58.90
46283;DHT22;32017;43.700;11.820;2022-08-01T12:46:58;37.10;57.60
46283;DHT22;32017;43.700;11.820;2022-08-01T12:49:01;36.30;56.70
46283;DHT22;32017;43.700;11.820;2022-08-01T12:51:03;36.10;56.70
46283;DHT22;32017;43.700;11.820;2022-08-01T12:53:05;35.40;56.30
46283;DHT22;32017;43.700;11.820;2022-08-01T12:55:09;35.50;56.90
46283;DHT22;32017;43.700;11.820;2022-08-01T12:57:23;36.10;56.50
46283;DHT22;32017;43.700;11.820;2022-08-01T12:59:27;36.20;56.10
46283;DHT22;32017;43.700;11.820;2022-08-01T13:01:29;35.70;58.90
46283;DHT22;32017;43.700;11.820;2022-08-01T13:03:31;36.10;57.70
46283;DHT22;32017;43.700;11.820;2022-08-01T13:05:46;36.60;58.90
46283;DHT22;32017;43.700;11.820;2022-08-01T13:07:49;36.60;57.00
46283;DHT22;32017;43.700;11.820;2022-08-01T13:09:52;37.20;56.20
46283;DHT22;32017;43.700;11.820;2022-08-01T13:11:54;37.60;56.00
46283;DHT22;32017;43.700;11.820;2022-08-01T13:14:05;37.40;53.90
46283;DHT22;32017;43.700;11.820;2022-08-01T13:16:07;37.40;56.80
46283;DHT22;32017;43.700;11.820;2022-08-01T13:18:26;36.90;57.10
46283;DHT22;32017;43.700;11.820;2022-08-01T13:20:29;37.40;57.70
46283;DHT22;32017;43.700;11.820;2022-08-01T13:22:35;37.30;56.70
46283;DHT22;32017;43.700;11.820;2022-08-01T13:24:48;37.70;59.20
46283;DHT22;32017;43.700;11.820;2022-08-01T13:26:50;37.60;56.80
46283;DHT22;32017;43.700;11.820;2022-08-01T13:29:05;37.70;54.00
46283;DHT22;32017;43.700;11.820;2022-08-01T13:31:09;37.40;57.50
46283;DHT22;32017;43.700;11.820;2022-08-01T13:33:12;37.60;55.00